MST,Max TemperatureF,Mean TemperatureF,Min TemperatureF,Max Dew PointF,MeanDew PointF,Min DewpointF,Max Humidity, Mean Humidity, Min Humidity, Max Sea Level PressureIn, Mean Sea Level PressureIn, Min Sea Level PressureIn, Max VisibilityMiles, Mean VisibilityMiles, Min VisibilityMiles, Max Wind SpeedMPH, Mean Wind SpeedMPH, Max Gust SpeedMPH,PrecipitationIn, CloudCover, Events, WindDirDegrees
2013-12-1,32,31,30,28,27,25,92,82,72,30.46,30.36,30.31,10,10,10,8,3,10,0.00,8,,313
2013-12-2,32,31,29,28,27,25,92,85,78,30.31,30.07,29.87,10,10,8,8,3,9,0.00,8,,340
2013-12-3,53,40,27,35,27,21,100,65,30,29.85,29.61,29.34,10,5,0,24,5,33,0.02,7,Fog-Rain,169
2013-12-4,47,23,-2,30,15,-2,92,73,53,30.17,29.72,29.25,10,3,0,32,9,46,0.38,7,Fog-Rain-Snow,15
2013-12-5,14,3,-9,4,-3,-11,91,76,61,30.19,30.11,29.96,10,8,2,12,5,12,T,4,Snow,138
2013-12-6,17,7,-4,7,-1,-6,95,81,66,30.37,30.22,29.99,10,9,4,9,5,10,T,4,Snow,137
2013-12-7,27,17,6,24,17,2,92,77,62,30.23,29.82,29.63,10,6,0,13,4,18,0.02,8,Fog-Snow,136
2013-12-8,26,10,-6,24,13,-9,95,79,62,30.25,29.88,29.62,10,7,0,20,5,23,0.05,5,Fog-Snow,260
2013-12-9,17,5,-8,4,-2,-12,87,69,51,30.74,30.48,30.18,10,9,2,12,6,12,T,2,Snow,141
2013-12-10,16,4,-9,3,-4,-11,87,70,53,30.79,30.65,30.53,10,10,10,10,5,11,0.00,0,,138
2013-12-11,26,12,-2,8,2,-6,95,69,42,30.80,30.67,30.55,10,10,8,10,4,11,0.00,0,,150
2013-12-12,28,14,-1,13,5,-3,95,75,55,30.78,30.58,30.34,10,9,6,10,5,11,0.00,0,,151
2013-12-13,26,14,1,15,7,-2,95,78,60,30.44,30.31,30.22,10,8,5,9,4,10,0.00,1,,148
2013-12-14,32,17,2,17,9,0,91,75,58,30.71,30.60,30.43,10,10,8,10,5,12,0.00,1,,129
2013-12-15,36,21,5,18,10,3,92,71,49,30.72,30.61,30.51,10,10,8,14,5,14,0.00,0,,141
2013-12-16,39,23,7,21,13,5,88,70,51,30.66,30.59,30.49,10,10,8,9,5,10,0.00,0,,136
2013-12-17,40,25,9,22,15,6,92,70,47,30.69,30.56,30.40,10,10,7,10,4,10,0.00,0,,154
2013-12-18,36,23,10,26,18,8,92,74,56,30.38,30.20,29.89,10,9,6,12,4,11,0.00,2,,141
2013-12-19,47,33,19,27,23,16,88,63,38,29.91,29.75,29.62,10,10,7,15,6,18,0.00,2,,136
2013-12-20,33,30,26,30,28,23,92,85,78,29.79,29.76,29.72,10,3,0,8,3,10,0.04,8,Fog-Snow,30
2013-12-21,33,27,20,27,23,19,100,86,72,30.03,29.76,29.66,10,6,1,12,3,13,0.02,8,Snow,30
2013-12-22,30,19,7,21,16,7,100,79,58,30.38,30.20,29.98,10,9,4,9,3,9,0.00,4,,155
2013-12-23,41,29,17,21,17,13,88,64,40,30.56,30.48,30.36,10,10,8,13,4,14,0.00,3,,123
2013-12-24,37,26,14,25,18,12,92,72,52,30.52,30.42,30.31,10,10,10,16,6,20,0.00,3,,143
2013-12-25,33,22,10,18,11,6,88,68,47,30.66,30.60,30.54,10,10,10,13,5,14,0.00,0,,145
2013-12-26,35,22,8,13,9,3,80,61,41,30.65,30.57,30.47,10,10,9,12,5,14,0.00,0,,146
2013-12-27,40,26,11,18,13,7,84,64,43,30.62,30.47,30.32,10,10,7,10,5,11,0.00,0,,158
2013-12-28,35,24,12,21,16,10,92,73,54,30.29,30.17,30.08,10,10,6,9,4,10,0.00,0,,119
2013-12-29,33,23,12,18,15,9,92,70,47,30.38,30.29,30.17,10,10,7,12,5,14,0.00,2,,154
2013-12-30,38,24,10,15,11,7,84,61,38,30.51,30.42,30.32,10,10,8,13,4,14,0.00,1,,140
2013-12-31,39,27,14,24,18,10,81,65,48,30.43,30.32,30.17,10,10,10,10,3,12,0.00,5,,133